Terminal Aerodrome Forecast
Issued by NWS Twin Cities, MN

Home | Current Version | Previous Version | Graphics & Text | Print | Product List | Glossary On
Versions: 1 2 3 4 5 6 7 8 9 10 11 12 13 14 15 16 17 18 19 20 21 22 23 24 25 26
000
FTUS43 KMPX 210500
TAFMSP
TAF
KMSP 210523Z 2106/2212 29010KT P6SM SCT040 BKN060
     FM211300 33013G20KT P6SM SCT025 OVC040
      TEMPO 2114/2117 BKN025
     FM211700 33012KT P6SM BKN035
     FM212200 33009KT P6SM SCT045
     FM220100 34006KT P6SM FEW045=

USA.gov is the U.S. government's official web portal to all federal, state and local government web resources and services.